Socorro, Texas
Current Conditions -  °F | °C
As of 2:43 PM on Thursday 23 Oct 2014 (Local Time) from MMCS Reporting Station
Few Clouds Few Clouds  
Wind Chill: 28°   Ceiling: Unl
Heat Index: 28°   Visibility: 10mi
Dew Point: 13°   Wind: 0mph
Humidity: 39%   Direction: NA
Pressure: 30.1"   Gusts: NA
Location:  31.66°N, 106.3°W
Report Text: MMCS 232043Z 00000KT 10SM FEW040 28/13 A3010 RMK SLP101 57035 916 8/100
Loading
Personal Weather Stations






























Interactive Weather Map
Tropical Storm Tracking
New forecast layout! Learn more

10-Day Weather Forecast

Advertisements
Track Severe Weather on mobile